Time;durP1;ratioP1;P1;durP2;ratioP2;P2;SDS_P1;SDS_P2;PMS_P1;PMS_P2;Temp;Humidity;BMP_temperature;BMP_pressure;BME280_temperature;BME280_humidity;BME280_pressure;Samples;Min_cycle;Max_cycle;Signal;HPM_P1;HPM_P2
2021/01/27 00:01:44;;;;;;;;;;;;;;;-2.27;98.92;101616.00;4928434;29;19961;-78
2021/01/27 00:04:09;;;;;;;;;;;;;;;-2.31;99.15;101611.84;4927841;29;19922;-79
2021/01/27 00:06:36;;;;;;;;;;;;;;;-2.21;99.29;101610.69;4924738;28;19927;-79
2021/01/27 00:09:01;;;;;;;;;;;;;;;-2.13;99.10;101602.75;4943483;29;20006;-78
2021/01/27 00:11:26;;;;;;;;;;;;;;;-2.04;99.25;101610.19;4927788;29;20045;-78
2021/01/27 00:13:52;;;;;;;;;;;;;;;-1.99;98.95;101601.47;4937282;29;19921;-79
2021/01/27 00:16:17;;;;;;;;;;;;;;;-2.09;99.20;101597.50;4931558;28;19915;-80
2021/01/27 00:18:43;;;;;;;;;;;;;;;-2.16;99.37;101595.97;4926860;29;19914;-80
2021/01/27 00:21:08;;;;;;;;;;;;;;;-2.20;99.26;101576.41;4943954;29;19914;-77
2021/01/27 00:23:33;;;;;;;;;;;;;;;-2.21;99.60;101580.66;4934752;29;19918;-77
2021/01/27 00:25:59;;;;;;;;;;;;;;;-2.23;99.38;101581.63;4925071;29;19926;-79
2021/01/27 00:28:24;;;;;;;;;;;;;;;-2.07;99.63;101584.56;4923063;29;19949;-76
2021/01/27 00:30:50;;;;;;;;;;;;;;;-1.87;99.29;101582.25;4904862;29;19918;-77
2021/01/27 00:33:15;;;;;;;;;;;;;;;-1.96;99.16;101573.09;4924128;29;19918;-78
2021/01/27 00:35:43;;;;;;;;;;;;;;;-2.04;99.29;101574.22;4935991;29;20330;-77
2021/01/27 00:38:11;;;;;;;;;;;;;;;-2.06;99.37;101576.81;4915671;29;20472;-79
2021/01/27 00:40:36;;;;;;;;;;;;;;;-1.97;99.53;101575.72;4916670;29;19919;-78
2021/01/27 00:43:01;;;;;;;;;;;;;;;-2.04;99.41;101569.06;4929104;29;19915;-78
2021/01/27 00:45:27;;;;;;;;;;;;;;;-1.94;99.42;101562.78;4916885;29;19953;-78
2021/01/27 00:47:52;;;;;;;;;;;;;;;-1.67;99.36;101561.06;4919425;29;19919;-79
2021/01/27 00:50:18;;;;;;;;;;;;;;;-1.65;99.00;101558.47;4925254;29;19918;-78
2021/01/27 00:52:48;;;;;;;;;;;;;;;-1.65;99.22;101564.44;4927691;29;19927;-78
2021/01/27 00:55:16;;;;;;;;;;;;;;;-1.80;99.14;101560.59;4913348;29;19922;-77
2021/01/27 00:57:42;;;;;;;;;;;;;;;-1.82;99.33;101556.41;4909130;29;19990;-78
2021/01/27 01:00:14;;;;;;;;;;;;;;;-1.85;99.58;101559.06;4927686;29;19915;-79
2021/01/27 01:02:40;;;;;;;;;;;;;;;-1.93;99.52;101553.31;4917513;29;19974;-76
2021/01/27 01:05:07;;;;;;;;;;;;;;;-1.88;99.76;101552.31;4947992;29;19927;-76
2021/01/27 01:07:32;;;;;;;;;;;;;;;-1.83;99.72;101547.88;4938780;29;19974;-79
2021/01/27 01:09:57;;;;;;;;;;;;;;;-1.57;99.73;101549.59;4911463;29;20417;-79
2021/01/27 01:12:23;;;;;;;;;;;;;;;-1.45;99.39;101552.66;4946832;28;19922;-77
2021/01/27 01:14:48;;;;;;;;;;;;;;;-1.31;98.91;101547.91;4942405;29;19922;-80
2021/01/27 01:17:13;;;;;;;;;;;;;;;-1.16;98.66;101556.03;4947685;29;20025;-78
2021/01/27 01:19:40;;;;;;;;;;;;;;;-1.04;98.53;101563.34;4953054;28;19915;-78
2021/01/27 01:22:05;;;;;;;;;;;;;;;-1.00;98.72;101563.19;4941250;29;20790;-79
2021/01/27 01:24:31;;;;;;;;;;;;;;;-1.04;98.62;101560.75;4899931;29;20022;-77
2021/01/27 01:26:56;;;;;;;;;;;;;;;-1.05;98.56;101559.09;4927399;29;19950;-78
2021/01/27 01:29:21;;;;;;;;;;;;;;;-1.07;98.87;101559.13;4927109;29;19925;-79
2021/01/27 01:31:47;;;;;;;;;;;;;;;-1.08;98.92;101562.59;4922850;29;20103;-78
2021/01/27 01:34:12;;;;;;;;;;;;;;;-1.07;98.98;101553.16;4915224;29;20800;-80
2021/01/27 01:36:37;;;;;;;;;;;;;;;-0.90;98.78;101558.56;4930563;28;19923;-78
2021/01/27 01:39:03;;;;;;;;;;;;;;;-0.90;98.30;101555.16;4923662;29;19919;-79
2021/01/27 01:41:28;;;;;;;;;;;;;;;-0.84;98.32;101549.78;4928227;29;20341;-78
2021/01/27 01:43:54;;;;;;;;;;;;;;;-0.77;98.16;101551.25;4901837;29;19922;-78
2021/01/27 01:46:20;;;;;;;;;;;;;;;-0.76;98.48;101549.50;4914098;29;19925;-78
2021/01/27 01:48:50;;;;;;;;;;;;;;;-0.80;98.40;101547.03;4934419;29;19919;-80
2021/01/27 01:51:28;;;;;;;;;;;;;;;-0.80;98.57;101543.63;4939069;28;19926;-80
2021/01/27 01:53:58;;;;;;;;;;;;;;;-0.81;98.79;101541.94;4949262;29;19946;-79
2021/01/27 01:56:26;;;;;;;;;;;;;;;-0.80;98.53;101546.22;4928928;29;19954;-79
2021/01/27 01:58:52;;;;;;;;;;;;;;;-0.88;99.19;101537.91;4936982;29;19952;-80
2021/01/27 02:01:19;;;;;;;;;;;;;;;-0.84;98.85;101547.22;4933613;29;19961;-78
2021/01/27 02:03:45;;;;;;;;;;;;;;;-0.79;99.13;101545.31;4907116;29;19926;-79
2021/01/27 02:06:11;;;;;;;;;;;;;;;-0.80;99.04;101541.88;4930538;29;19915;-78
2021/01/27 02:08:38;;;;;;;;;;;;;;;-0.79;98.99;101535.03;4923936;29;19918;-78
2021/01/27 02:11:03;;;;;;;;;;;;;;;-0.84;99.36;101542.06;4927735;29;19974;-78
2021/01/27 02:13:46;;;;;;;;;;;;;;;-0.73;98.86;101536.53;4938368;29;19918;-78
2021/01/27 02:16:18;;;;;;;;;;;;;;;-0.67;98.86;101534.56;4942513;29;19958;-79
2021/01/27 02:18:56;;;;;;;;;;;;;;;-0.68;98.58;101530.31;4929659;29;19993;-79
2021/01/27 02:21:31;;;;;;;;;;;;;;;-0.74;98.79;101524.53;4926630;29;20030;-78
2021/01/27 02:24:11;;;;;;;;;;;;;;;-0.92;98.54;101521.72;4923818;29;19926;-76
2021/01/27 02:26:46;;;;;;;;;;;;;;;-0.90;98.89;101522.50;4942632;29;19919;-80
2021/01/27 02:29:20;;;;;;;;;;;;;;;-0.88;98.50;101517.31;4929783;29;19914;-79
2021/01/27 02:31:54;;;;;;;;;;;;;;;-1.03;98.80;101514.38;4922880;29;19975;-78
2021/01/27 02:34:19;;;;;;;;;;;;;;;-1.00;99.02;101515.97;4922736;29;19923;-79
2021/01/27 02:36:57;;;;;;;;;;;;;;;-0.94;99.03;101512.34;4920862;29;19925;-79
2021/01/27 02:39:26;;;;;;;;;;;;;;;-1.01;98.99;101512.56;4911335;29;19926;-78
2021/01/27 02:42:05;;;;;;;;;;;;;;;-0.94;98.82;101504.63;4926289;29;19919;-79
2021/01/27 02:44:39;;;;;;;;;;;;;;;-0.90;98.71;101513.94;4937555;29;19923;-79
2021/01/27 02:47:09;;;;;;;;;;;;;;;-0.96;98.58;101509.00;4913675;29;19915;-78
2021/01/27 02:49:38;;;;;;;;;;;;;;;-1.06;98.70;101511.03;4938149;29;19919;-79
2021/01/27 02:52:04;;;;;;;;;;;;;;;-1.20;98.91;101508.97;4919959;29;19922;-79
2021/01/27 02:54:37;;;;;;;;;;;;;;;-1.20;98.86;101512.38;4904496;29;19919;-79
2021/01/27 02:57:24;;;;;;;;;;;;;;;-1.33;99.40;101502.53;4946555;29;19919;-78
2021/01/27 02:59:49;;;;;;;;;;;;;;;-1.32;99.49;101501.63;4907695;29;20269;-78
2021/01/27 03:02:20;;;;;;;;;;;;;;;-1.29;99.38;101504.94;4928057;28;19967;-78
2021/01/27 03:05:06;;;;;;;;;;;;;;;-1.33;99.47;101500.81;4940153;29;20018;-79
2021/01/27 03:07:33;;;;;;;;;;;;;;;-1.23;99.09;101497.00;4949006;29;19925;-78
2021/01/27 03:10:00;;;;;;;;;;;;;;;-1.28;99.12;101498.06;4914918;29;19983;-78
2021/01/27 03:12:26;;;;;;;;;;;;;;;-1.24;99.33;101492.78;4936337;29;19927;-78
2021/01/27 03:14:51;;;;;;;;;;;;;;;-1.34;99.19;101488.81;4936472;29;19919;-77
2021/01/27 03:17:18;;;;;;;;;;;;;;;-1.42;99.58;101486.50;4936766;29;19925;-79
2021/01/27 03:19:57;;;;;;;;;;;;;;;-1.41;99.84;101493.34;4924999;29;19943;-79
2021/01/27 03:22:27;;;;;;;;;;;;;;;-1.49;99.66;101497.03;4928400;29;19926;-78
2021/01/27 03:24:56;;;;;;;;;;;;;;;-1.51;99.81;101489.38;4938754;29;20403;-79
2021/01/27 03:27:24;;;;;;;;;;;;;;;-1.53;99.87;101490.31;4919029;29;19925;-79
2021/01/27 03:29:49;;;;;;;;;;;;;;;-1.52;99.66;101484.31;4930062;29;19943;-79
2021/01/27 03:32:19;;;;;;;;;;;;;;;-1.52;100.00;101489.44;4916997;29;20715;-79
2021/01/27 03:34:47;;;;;;;;;;;;;;;-1.53;99.80;101482.59;4932763;29;19971;-78
2021/01/27 03:37:15;;;;;;;;;;;;;;;-1.52;99.72;101484.31;4935083;29;19919;-78
2021/01/27 03:39:45;;;;;;;;;;;;;;;-1.51;99.56;101481.66;4929198;29;19951;-79
2021/01/27 03:42:18;;;;;;;;;;;;;;;-1.45;99.57;101486.63;4940965;29;19942;-77
2021/01/27 03:44:48;;;;;;;;;;;;;;;-1.44;99.87;101477.16;4921510;29;19923;-78
2021/01/27 03:47:17;;;;;;;;;;;;;;;-1.46;99.89;101484.09;4926029;29;19973;-78
2021/01/27 03:49:48;;;;;;;;;;;;;;;-1.43;99.97;101481.41;4905803;29;19925;-79
2021/01/27 03:52:21;;;;;;;;;;;;;;;-1.45;100.00;101478.91;4935041;29;19926;-78
2021/01/27 03:54:52;;;;;;;;;;;;;;;-1.46;100.00;101472.06;4928419;29;19925;-78
2021/01/27 03:57:20;;;;;;;;;;;;;;;-1.42;100.00;101471.06;4929073;29;19986;-76
2021/01/27 03:59:46;;;;;;;;;;;;;;;-1.38;100.00;101479.53;4943894;29;19918;-78
2021/01/27 04:02:17;;;;;;;;;;;;;;;-1.29;99.91;101468.91;4937153;29;20500;-78
2021/01/27 04:04:42;;;;;;;;;;;;;;;-1.30;100.00;101467.25;4935284;29;19962;-78
2021/01/27 04:07:08;;;;;;;;;;;;;;;-1.20;99.89;101466.03;4915366;29;19921;-78
2021/01/27 04:09:33;;;;;;;;;;;;;;;-1.20;99.53;101470.34;4952028;29;20341;-78
2021/01/27 04:11:59;;;;;;;;;;;;;;;-1.27;99.90;101467.13;4917147;29;19914;-80
2021/01/27 04:14:24;;;;;;;;;;;;;;;-1.32;99.62;101471.59;4943844;28;19915;-79
2021/01/27 04:16:49;;;;;;;;;;;;;;;-1.34;99.82;101465.66;4930690;29;19926;-79
2021/01/27 04:19:15;;;;;;;;;;;;;;;-1.32;99.81;101457.88;4929805;29;19919;-80
2021/01/27 04:21:40;;;;;;;;;;;;;;;-1.34;99.91;101464.81;4918776;29;19915;-79
2021/01/27 04:24:06;;;;;;;;;;;;;;;-1.36;100.00;101464.88;4928418;29;20552;-79
2021/01/27 04:26:31;;;;;;;;;;;;;;;-1.34;99.91;101465.66;4911687;29;19914;-79
2021/01/27 04:28:56;;;;;;;;;;;;;;;-1.30;100.00;101461.25;4928752;29;20020;-78
2021/01/27 04:31:22;;;;;;;;;;;;;;;-1.29;100.00;101453.47;4941334;29;19922;-78
2021/01/27 04:33:47;;;;;;;;;;;;;;;-1.25;100.00;101452.47;4951724;29;19929;-79
2021/01/27 04:36:13;;;;;;;;;;;;;;;-1.22;100.00;101447.22;4919049;29;20388;-78
2021/01/27 04:38:38;;;;;;;;;;;;;;;-1.11;100.00;101443.41;4939939;29;19918;-79
2021/01/27 04:41:04;;;;;;;;;;;;;;;-1.06;100.00;101446.69;4913200;29;19919;-77
2021/01/27 04:43:32;;;;;;;;;;;;;;;-1.03;100.00;101444.00;4926217;29;19939;-75
2021/01/27 04:46:01;;;;;;;;;;;;;;;-1.02;99.94;101438.81;4925658;29;19934;-80
2021/01/27 04:48:37;;;;;;;;;;;;;;;-0.99;99.86;101435.28;4934933;29;19914;-78
2021/01/27 04:51:03;;;;;;;;;;;;;;;-1.01;100.00;101431.91;4940306;29;19915;-77
2021/01/27 04:53:41;;;;;;;;;;;;;;;-1.02;99.83;101428.50;4948630;29;20010;-79
2021/01/27 04:56:15;;;;;;;;;;;;;;;-1.03;100.00;101420.81;4926864;29;19922;-79
2021/01/27 04:58:59;;;;;;;;;;;;;;;-1.03;100.00;101426.81;4946783;29;20393;-77
2021/01/27 05:01:43;;;;;;;;;;;;;;;-0.95;100.00;101423.13;4895093;29;19965;-79
2021/01/27 05:04:18;;;;;;;;;;;;;;;-0.84;99.73;101431.28;4928888;29;19919;-79
2021/01/27 05:06:45;;;;;;;;;;;;;;;-0.75;99.58;101423.22;4903803;29;19915;-78
2021/01/27 05:09:13;;;;;;;;;;;;;;;-0.68;99.16;101421.25;4921723;29;19919;-78
2021/01/27 05:11:40;;;;;;;;;;;;;;;-0.65;98.99;101419.41;4911454;29;19919;-79
2021/01/27 05:14:06;;;;;;;;;;;;;;;-0.62;98.54;101416.72;4930133;29;19914;-79
2021/01/27 05:16:32;;;;;;;;;;;;;;;-0.69;99.32;101414.44;4916434;29;19926;-78
2021/01/27 05:18:59;;;;;;;;;;;;;;;-0.68;99.05;101416.09;4924905;29;19918;-77
2021/01/27 05:21:33;;;;;;;;;;;;;;;-0.75;99.41;101406.91;4938827;29;19914;-79
2021/01/27 05:23:59;;;;;;;;;;;;;;;-0.73;99.38;101407.72;4925865;29;20058;-78
2021/01/27 05:26:32;;;;;;;;;;;;;;;-0.65;99.40;101405.69;4931570;29;19950;-78
2021/01/27 05:29:05;;;;;;;;;;;;;;;-0.60;98.99;101406.38;4923519;29;19919;-79
2021/01/27 05:31:50;;;;;;;;;;;;;;;-0.59;99.55;101411.44;4935553;29;20010;-78
2021/01/27 05:34:25;;;;;;;;;;;;;;;-0.59;99.36;101400.28;4937049;29;19919;-79
2021/01/27 05:36:51;;;;;;;;;;;;;;;-0.56;99.58;101399.34;4918846;29;19925;-76
2021/01/27 05:39:16;;;;;;;;;;;;;;;-0.51;99.30;101400.00;4918747;29;19915;-78
2021/01/27 05:41:43;;;;;;;;;;;;;;;-0.56;99.72;101407.09;4938875;29;19919;-79
2021/01/27 05:44:12;;;;;;;;;;;;;;;-0.52;99.47;101400.91;4923271;29;19927;-79
2021/01/27 05:46:38;;;;;;;;;;;;;;;-0.56;99.34;101394.19;4906489;29;20017;-79
2021/01/27 05:49:09;;;;;;;;;;;;;;;-0.55;99.35;101393.28;4953868;29;19953;-79
2021/01/27 05:51:38;;;;;;;;;;;;;;;-0.38;98.89;101393.47;4919541;29;19989;-77
2021/01/27 05:54:20;;;;;;;;;;;;;;;-0.31;98.76;101399.22;4927170;29;19938;-79
2021/01/27 05:56:46;;;;;;;;;;;;;;;-0.40;98.85;101400.41;4953214;29;19925;-78
2021/01/27 05:59:20;;;;;;;;;;;;;;;-0.46;99.16;101390.34;4908306;29;19923;-79
2021/01/27 06:01:47;;;;;;;;;;;;;;;-0.41;98.95;101396.19;4930171;29;19961;-77
2021/01/27 06:04:12;;;;;;;;;;;;;;;-0.41;98.92;101396.19;4929113;29;19927;-78
2021/01/27 06:06:47;;;;;;;;;;;;;;;-0.45;98.93;101392.88;4934579;28;19926;-79
2021/01/27 06:09:13;;;;;;;;;;;;;;;-0.47;99.18;101396.41;4921725;29;20373;-78
2021/01/27 06:11:38;;;;;;;;;;;;;;;-0.47;99.18;101388.66;4940312;29;19934;-80
2021/01/27 06:14:07;;;;;;;;;;;;;;;-0.46;98.75;101383.47;4946670;29;20329;-79
2021/01/27 06:16:50;;;;;;;;;;;;;;;-0.48;99.16;101377.53;4953848;29;19915;-80
2021/01/27 06:19:17;;;;;;;;;;;;;;;-0.46;99.40;101380.88;4913898;29;19990;-79
2021/01/27 06:21:45;;;;;;;;;;;;;;;-0.46;99.15;101374.91;4912754;29;19958;-79
2021/01/27 06:24:20;;;;;;;;;;;;;;;-0.43;99.75;101367.06;4912508;29;19922;-79
2021/01/27 06:26:56;;;;;;;;;;;;;;;-0.45;99.27;101363.69;4928616;29;20293;-78
2021/01/27 06:29:24;;;;;;;;;;;;;;;-0.47;99.23;101363.75;4930226;29;19915;-79
2021/01/27 06:32:11;;;;;;;;;;;;;;;-0.48;99.49;101364.63;4906463;29;19926;-77
2021/01/27 06:34:53;;;;;;;;;;;;;;;-0.43;98.98;101359.31;4924935;29;19922;-76
2021/01/27 06:37:25;;;;;;;;;;;;;;;-0.27;99.04;101362.94;4924865;29;20014;-79
2021/01/27 06:40:01;;;;;;;;;;;;;;;-0.22;98.48;101363.59;4921367;29;19918;-77
2021/01/27 06:42:39;;;;;;;;;;;;;;;-0.05;98.06;101364.66;4953870;29;20480;-78
2021/01/27 06:45:07;;;;;;;;;;;;;;;-0.04;97.47;101368.91;4922775;29;20011;-77
2021/01/27 06:47:32;;;;;;;;;;;;;;;-0.04;97.70;101363.75;4937852;29;19919;-79
2021/01/27 06:50:10;;;;;;;;;;;;;;;-0.02;97.06;101354.19;4940630;29;19981;-78
2021/01/27 06:52:48;;;;;;;;;;;;;;;-0.12;97.49;101355.50;4956416;29;20558;-77
2021/01/27 06:55:19;;;;;;;;;;;;;;;-0.19;97.85;101354.88;4942551;29;19925;-79
2021/01/27 06:58:04;;;;;;;;;;;;;;;-0.13;97.16;101352.09;4932291;29;19914;-79
2021/01/27 07:00:39;;;;;;;;;;;;;;;-0.23;97.49;101350.78;4933643;29;20397;-78
2021/01/27 07:03:23;;;;;;;;;;;;;;;-0.21;97.58;101347.25;4944272;29;19914;-78
2021/01/27 07:05:59;;;;;;;;;;;;;;;-0.31;97.89;101352.81;4936647;29;20140;-78
2021/01/27 07:08:33;;;;;;;;;;;;;;;-0.36;98.48;101358.16;4902354;29;20394;-78
2021/01/27 07:10:58;;;;;;;;;;;;;;;-0.42;98.20;101350.66;4942264;29;20518;-79
2021/01/27 07:13:48;;;;;;;;;;;;;;;-0.54;98.62;101352.00;4929526;29;19939;-78
2021/01/27 07:16:24;;;;;;;;;;;;;;;-0.58;98.78;101360.75;4937397;29;19918;-79
2021/01/27 07:19:18;;;;;;;;;;;;;;;-0.59;98.96;101359.06;4938420;29;19915;-78
2021/01/27 07:22:04;;;;;;;;;;;;;;;-0.66;99.10;101358.47;4936219;29;19961;-77
2021/01/27 07:24:33;;;;;;;;;;;;;;;-0.68;99.13;101373.16;4934246;29;19919;-78
2021/01/27 07:26:59;;;;;;;;;;;;;;;-0.68;99.54;101368.00;4933100;29;19926;-78
2021/01/27 07:29:30;;;;;;;;;;;;;;;-0.63;99.70;101370.41;4929042;29;19914;-77
2021/01/27 07:31:58;;;;;;;;;;;;;;;-0.60;99.18;101359.97;4932496;29;19951;-78
2021/01/27 07:34:39;;;;;;;;;;;;;;;-0.51;99.02;101356.19;4928150;29;19919;-79
2021/01/27 07:37:10;;;;;;;;;;;;;;;-0.49;98.97;101355.25;4886913;29;19919;-78
2021/01/27 07:39:42;;;;;;;;;;;;;;;-0.31;98.54;101350.25;4901621;29;19926;-77
2021/01/27 07:42:13;;;;;;;;;;;;;;;-0.17;97.25;101345.38;4901593;29;19919;-76
2021/01/27 07:44:41;;;;;;;;;;;;;;;-0.25;97.64;101347.41;4927627;29;19923;-77
2021/01/27 07:47:32;;;;;;;;;;;;;;;-0.33;97.90;101352.06;4934452;29;19915;-77
2021/01/27 07:49:58;;;;;;;;;;;;;;;-0.33;98.05;101345.16;4946746;29;19945;-79
2021/01/27 07:52:33;;;;;;;;;;;;;;;-0.30;97.71;101337.31;4939696;29;19918;-78
2021/01/27 07:55:11;;;;;;;;;;;;;;;-0.37;98.16;101333.28;4956754;29;19925;-80
2021/01/27 07:57:43;;;;;;;;;;;;;;;-0.27;97.21;101339.75;4930225;29;19944;-78
2021/01/27 08:00:12;;;;;;;;;;;;;;;-0.18;96.89;101335.13;4931342;29;20784;-78
2021/01/27 08:02:49;;;;;;;;;;;;;;;-0.26;97.24;101333.69;4941047;29;19929;-79
2021/01/27 08:05:16;;;;;;;;;;;;;;;-0.22;97.00;101331.84;4934736;29;19969;-78
2021/01/27 08:07:49;;;;;;;;;;;;;;;-0.31;97.42;101325.31;4922003;29;19922;-79
2021/01/27 08:10:14;;;;;;;;;;;;;;;-0.29;97.27;101317.50;4916656;29;19950;-78
2021/01/27 08:12:51;;;;;;;;;;;;;;;-0.36;97.06;101316.06;4946989;29;19950;-77
2021/01/27 08:15:25;;;;;;;;;;;;;;;-0.42;97.57;101307.69;4941114;29;20284;-79
2021/01/27 08:17:51;;;;;;;;;;;;;;;-0.46;97.18;101308.72;4954738;29;19918;-77
2021/01/27 08:20:24;;;;;;;;;;;;;;;-0.50;97.64;101301.19;4956700;28;20357;-78
2021/01/27 08:22:51;;;;;;;;;;;;;;;-0.52;98.05;101308.13;4916581;29;19938;-79
2021/01/27 08:25:35;;;;;;;;;;;;;;;-0.45;97.34;101309.56;4955732;28;19972;-77
2021/01/27 08:28:17;;;;;;;;;;;;;;;-0.54;97.79;101304.78;4927431;29;20001;-79
2021/01/27 08:30:42;;;;;;;;;;;;;;;-0.55;98.07;101303.09;4935517;29;19925;-78
2021/01/27 08:33:26;;;;;;;;;;;;;;;-0.55;98.11;101300.50;4934730;29;19938;-78
2021/01/27 08:35:52;;;;;;;;;;;;;;;-0.42;97.99;101299.94;4937112;29;19976;-79
2021/01/27 08:38:21;;;;;;;;;;;;;;;-0.31;97.74;101296.13;4939027;29;19950;-77
2021/01/27 08:40:47;;;;;;;;;;;;;;;-0.20;97.47;101283.63;4923426;29;19926;-77
2021/01/27 08:43:14;;;;;;;;;;;;;;;-0.12;97.06;101291.03;4935758;29;19914;-79
2021/01/27 08:45:39;;;;;;;;;;;;;;;-0.13;96.52;101281.59;4951051;29;19965;-77
2021/01/27 08:48:06;;;;;;;;;;;;;;;0.01;95.51;101281.88;4919332;29;19950;-78
2021/01/27 08:50:40;;;;;;;;;;;;;;;0.09;95.23;101291.84;4950314;29;19919;-79
2021/01/27 08:53:07;;;;;;;;;;;;;;;0.14;95.10;101295.09;4936534;29;19915;-79
2021/01/27 08:55:34;;;;;;;;;;;;;;;0.15;95.01;101295.03;4952889;29;19919;-79
2021/01/27 08:58:19;;;;;;;;;;;;;;;0.25;94.60;101297.22;4916991;29;19919;-79
2021/01/27 09:00:45;;;;;;;;;;;;;;;0.36;94.51;101297.59;4917218;29;19915;-78
2021/01/27 09:03:30;;;;;;;;;;;;;;;0.32;95.06;101293.44;4916255;29;20336;-78
2021/01/27 09:05:57;;;;;;;;;;;;;;;0.43;95.08;101290.38;4915859;28;19962;-79
2021/01/27 09:08:25;;;;;;;;;;;;;;;0.54;94.04;101290.75;4916910;29;20516;-79
2021/01/27 09:10:56;;;;;;;;;;;;;;;0.55;94.02;101293.28;4931910;29;19918;-76
2021/01/27 09:13:28;;;;;;;;;;;;;;;0.54;94.23;101289.00;4941539;29;19923;-79
2021/01/27 09:15:56;;;;;;;;;;;;;;;0.59;94.06;101293.97;4932337;29;20385;-78
2021/01/27 09:18:21;;;;;;;;;;;;;;;0.62;94.08;101295.56;4918373;29;20301;-79
2021/01/27 09:20:47;;;;;;;;;;;;;;;0.70;93.55;101304.66;4934003;29;19918;-75
2021/01/27 09:23:16;;;;;;;;;;;;;;;0.80;92.50;101297.31;4920283;29;19914;-79
2021/01/27 09:25:45;;;;;;;;;;;;;;;0.84;91.55;101295.44;4933591;29;19941;-78
2021/01/27 09:28:11;;;;;;;;;;;;;;;0.77;92.03;101284.53;4920184;29;20483;-77
2021/01/27 09:30:37;;;;;;;;;;;;;;;0.86;92.52;101278.97;4936752;29;19918;-77
2021/01/27 09:33:09;;;;;;;;;;;;;;;0.85;92.35;101276.44;4970141;28;19961;-78
2021/01/27 09:35:35;;;;;;;;;;;;;;;0.96;91.80;101282.81;4954170;29;20008;-79
2021/01/27 09:38:05;;;;;;;;;;;;;;;1.02;90.69;101288.56;4955515;28;19974;-79
2021/01/27 09:40:42;;;;;;;;;;;;;;;1.07;89.40;101286.63;4926969;29;19929;-78
2021/01/27 09:43:12;;;;;;;;;;;;;;;1.14;89.52;101286.25;4955243;28;19918;-79
2021/01/27 09:45:39;;;;;;;;;;;;;;;1.20;87.94;101300.63;4911041;29;19923;-78
2021/01/27 09:48:05;;;;;;;;;;;;;;;1.17;88.58;101299.03;4915992;29;20009;-79
2021/01/27 09:50:31;;;;;;;;;;;;;;;1.20;88.91;101302.38;4917528;29;19919;-79
2021/01/27 09:52:59;;;;;;;;;;;;;;;1.36;88.05;101311.94;4919838;29;19923;-80
2021/01/27 09:55:25;;;;;;;;;;;;;;;1.39;87.79;101304.94;4916708;29;20433;-80
2021/01/27 09:57:51;;;;;;;;;;;;;;;1.47;87.62;101308.84;4921715;29;19925;-80
2021/01/27 10:00:23;;;;;;;;;;;;;;;1.54;84.98;101306.78;4932991;29;19922;-79
2021/01/27 10:02:48;;;;;;;;;;;;;;;1.57;84.74;101318.75;4929851;29;20005;-78
2021/01/27 10:05:32;;;;;;;;;;;;;;;1.62;86.01;101325.38;4929254;29;20300;-78
2021/01/27 10:07:58;;;;;;;;;;;;;;;1.72;84.15;101318.00;4935136;29;20819;-78
2021/01/27 10:10:24;;;;;;;;;;;;;;;1.79;84.08;101319.38;4919257;29;19970;-80
2021/01/27 10:12:54;;;;;;;;;;;;;;;1.92;84.00;101314.41;4954636;28;19918;-80
2021/01/27 10:15:25;;;;;;;;;;;;;;;1.97;83.55;101307.25;4928503;29;19914;-79
2021/01/27 10:18:00;;;;;;;;;;;;;;;2.05;83.33;101315.44;4919616;29;19919;-80
2021/01/27 10:20:38;;;;;;;;;;;;;;;2.15;82.79;101310.66;4905837;29;20293;-79
2021/01/27 10:23:06;;;;;;;;;;;;;;;2.31;82.78;101308.13;4935682;29;20026;-78
2021/01/27 10:25:39;;;;;;;;;;;;;;;2.35;81.42;101296.69;4918368;29;19968;-78
2021/01/27 10:28:10;;;;;;;;;;;;;;;2.34;81.63;101295.03;4911829;29;20388;-80
2021/01/27 10:30:48;;;;;;;;;;;;;;;2.37;81.38;101283.66;4936727;29;19934;-77
2021/01/27 10:33:32;;;;;;;;;;;;;;;2.41;81.51;101274.81;4931788;29;19915;-76
2021/01/27 10:35:58;;;;;;;;;;;;;;;2.41;80.38;101270.50;4924289;29;20022;-79
2021/01/27 10:38:25;;;;;;;;;;;;;;;2.43;79.89;101271.25;4940842;29;20468;-78
2021/01/27 10:41:04;;;;;;;;;;;;;;;2.43;80.66;101273.84;4924355;29;19921;-75
2021/01/27 10:43:30;;;;;;;;;;;;;;;2.44;81.11;101269.47;4929633;29;20391;-79
2021/01/27 10:45:55;;;;;;;;;;;;;;;2.42;81.39;101269.56;4910589;29;19926;-78
2021/01/27 10:48:21;;;;;;;;;;;;;;;2.39;81.02;101281.81;4939256;29;19915;-77
2021/01/27 10:50:49;;;;;;;;;;;;;;;2.30;80.45;101271.03;4933322;29;19968;-77
2021/01/27 10:53:15;;;;;;;;;;;;;;;2.34;81.12;101274.31;4907289;29;19922;-77
2021/01/27 10:55:43;;;;;;;;;;;;;;;2.39;81.34;101272.28;4924971;29;20297;-76
2021/01/27 10:58:10;;;;;;;;;;;;;;;2.43;81.06;101272.97;4932583;29;19919;-77
2021/01/27 11:00:36;;;;;;;;;;;;;;;2.42;79.98;101264.38;4917786;29;19915;-77
2021/01/27 11:03:02;;;;;;;;;;;;;;;2.40;80.55;101262.81;4917197;29;19919;-77
2021/01/27 11:05:28;;;;;;;;;;;;;;;2.43;80.50;101262.63;4931971;29;20197;-75
2021/01/27 11:07:54;;;;;;;;;;;;;;;2.45;80.85;101264.22;4937090;29;20408;-75
2021/01/27 11:10:19;;;;;;;;;;;;;;;2.51;79.71;101266.47;4933337;29;19919;-78
2021/01/27 11:12:45;;;;;;;;;;;;;;;2.52;81.18;101272.50;4952684;28;19969;-77
2021/01/27 11:15:12;;;;;;;;;;;;;;;2.51;80.29;101260.47;4945715;29;19961;-77
2021/01/27 11:17:40;;;;;;;;;;;;;;;2.58;79.71;101266.16;4904378;29;19915;-76
2021/01/27 11:20:06;;;;;;;;;;;;;;;2.59;79.59;101268.66;4935060;29;19957;-76
2021/01/27 11:22:31;;;;;;;;;;;;;;;2.63;79.75;101264.16;4899874;29;19919;-77
2021/01/27 11:25:08;;;;;;;;;;;;;;;2.71;80.59;101249.88;4930687;29;19923;-77
2021/01/27 11:27:33;;;;;;;;;;;;;;;2.69;78.88;101241.38;4929416;29;19925;-79
2021/01/27 11:29:59;;;;;;;;;;;;;;;2.69;79.72;101238.78;4912364;29;20274;-77
2021/01/27 11:32:24;;;;;;;;;;;;;;;2.70;79.10;101218.88;4928719;29;19921;-77
2021/01/27 11:34:50;;;;;;;;;;;;;;;2.68;78.75;101225.91;4958940;29;19920;-78
2021/01/27 11:37:15;;;;;;;;;;;;;;;2.63;78.40;101218.34;4940198;29;19918;-79
2021/01/27 11:39:41;;;;;;;;;;;;;;;2.61;78.92;101204.66;4951559;29;19961;-80
2021/01/27 11:42:06;;;;;;;;;;;;;;;2.62;79.07;101202.91;4959135;29;19925;-79
2021/01/27 11:44:31;;;;;;;;;;;;;;;2.62;80.13;101198.56;4951786;29;19946;-80
2021/01/27 11:46:57;;;;;;;;;;;;;;;2.57;79.43;101208.34;4942247;29;19918;-78
2021/01/27 11:49:22;;;;;;;;;;;;;;;2.58;79.86;101201.41;4950532;29;19918;-76
2021/01/27 11:51:48;;;;;;;;;;;;;;;2.57;79.52;101200.56;4924135;29;19925;-76
2021/01/27 11:54:13;;;;;;;;;;;;;;;2.59;79.23;101188.38;4939824;29;19918;-78
2021/01/27 11:56:40;;;;;;;;;;;;;;;2.62;79.80;101195.13;4941268;29;20377;-77
2021/01/27 11:59:06;;;;;;;;;;;;;;;2.64;80.12;101193.31;4937986;29;19921;-77
2021/01/27 12:01:35;;;;;;;;;;;;;;;2.60;78.15;101191.78;4921208;29;19919;-78
2021/01/27 12:04:01;;;;;;;;;;;;;;;2.55;77.33;101186.03;4922118;29;19998;-80
2021/01/27 12:06:26;;;;;;;;;;;;;;;2.53;78.99;101179.19;4936777;28;19962;-78
2021/01/27 12:08:51;;;;;;;;;;;;;;;2.53;79.20;101174.00;4920378;29;19919;-80
2021/01/27 12:11:17;;;;;;;;;;;;;;;2.52;78.41;101176.69;4941751;29;19914;-79
2021/01/27 12:13:48;;;;;;;;;;;;;;;2.47;78.25;101156.22;4945162;29;19915;-79
2021/01/27 12:16:14;;;;;;;;;;;;;;;2.47;78.00;101156.22;4920016;29;19914;-80
2021/01/27 12:18:41;;;;;;;;;;;;;;;2.54;78.14;101159.28;4905038;29;512747;-79
2021/01/27 12:21:07;;;;;;;;;;;;;;;2.57;77.78;101160.91;4905199;29;20353;-80
2021/01/27 12:23:33;;;;;;;;;;;;;;;2.58;77.50;101152.19;4936716;29;19915;-79
2021/01/27 12:25:59;;;;;;;;;;;;;;;2.50;77.78;101143.09;4935880;29;19930;-79
2021/01/27 12:28:25;;;;;;;;;;;;;;;2.52;77.83;101140.41;4936636;29;19965;-79
2021/01/27 12:30:56;;;;;;;;;;;;;;;2.51;77.27;101133.59;4937319;29;19970;-76
2021/01/27 12:33:21;;;;;;;;;;;;;;;2.54;77.77;101128.22;4955292;29;20314;-80
2021/01/27 12:35:47;;;;;;;;;;;;;;;2.60;78.42;101125.31;4940138;29;19937;-79
2021/01/27 12:38:13;;;;;;;;;;;;;;;2.66;77.90;101124.97;4937368;29;19935;-80
2021/01/27 12:40:38;;;;;;;;;;;;;;;2.67;77.25;101129.19;4931805;29;20006;-78
2021/01/27 12:43:04;;;;;;;;;;;;;;;2.62;78.57;101130.38;4923864;29;19942;-78
2021/01/27 12:45:30;;;;;;;;;;;;;;;2.50;77.89;101135.31;4936500;29;20596;-78
2021/01/27 12:47:55;;;;;;;;;;;;;;;2.47;78.71;101130.31;4943140;29;20444;-79
2021/01/27 12:50:22;;;;;;;;;;;;;;;2.42;78.13;101124.56;4926801;29;19991;-77
2021/01/27 12:52:47;;;;;;;;;;;;;;;2.44;77.78;101116.72;4957780;29;19948;-79